sensor_id;sensor_type;location;lat;lon;timestamp;temperature;humidity
36790;DHT22;22740;52.182;8.780;2023-07-08T00:05:21;19.50;99.90
36790;DHT22;22740;52.182;8.780;2023-07-08T00:11:23;19.40;99.90
36790;DHT22;22740;52.182;8.780;2023-07-08T00:17:25;19.30;99.90
36790;DHT22;22740;52.182;8.780;2023-07-08T00:23:27;19.20;99.90
36790;DHT22;22740;52.182;8.780;2023-07-08T00:29:28;19.20;99.90
36790;DHT22;22740;52.182;8.780;2023-07-08T00:35:40;19.10;99.90
36790;DHT22;22740;52.182;8.780;2023-07-08T00:41:43;19.00;99.90
36790;DHT22;22740;52.182;8.780;2023-07-08T00:47:46;19.00;99.90
36790;DHT22;22740;52.182;8.780;2023-07-08T00:53:48;19.10;99.90
36790;DHT22;22740;52.182;8.780;2023-07-08T00:59:55;19.10;99.90
36790;DHT22;22740;52.182;8.780;2023-07-08T01:05:59;19.00;99.90
36790;DHT22;22740;52.182;8.780;2023-07-08T01:12:04;19.10;99.90
36790;DHT22;22740;52.182;8.780;2023-07-08T01:18:09;19.10;99.90
36790;DHT22;22740;52.182;8.780;2023-07-08T01:24:12;19.10;99.90
36790;DHT22;22740;52.182;8.780;2023-07-08T01:30:14;19.00;99.90
36790;DHT22;22740;52.182;8.780;2023-07-08T01:36:17;19.30;99.90
36790;DHT22;22740;52.182;8.780;2023-07-08T01:42:19;19.50;99.90
36790;DHT22;22740;52.182;8.780;2023-07-08T01:48:22;19.50;99.90
36790;DHT22;22740;52.182;8.780;2023-07-08T01:54:24;19.20;99.90
36790;DHT22;22740;52.182;8.780;2023-07-08T02:00:26;19.20;99.90
36790;DHT22;22740;52.182;8.780;2023-07-08T02:06:28;19.00;99.90
36790;DHT22;22740;52.182;8.780;2023-07-08T02:12:30;18.90;99.90
36790;DHT22;22740;52.182;8.780;2023-07-08T02:18:32;18.80;99.90
36790;DHT22;22740;52.182;8.780;2023-07-08T02:24:34;18.50;99.90
36790;DHT22;22740;52.182;8.780;2023-07-08T02:30:36;18.50;99.90
36790;DHT22;22740;52.182;8.780;2023-07-08T02:36:38;18.50;99.90
36790;DHT22;22740;52.182;8.780;2023-07-08T02:42:40;18.50;99.90
36790;DHT22;22740;52.182;8.780;2023-07-08T02:48:42;18.50;99.90
36790;DHT22;22740;52.182;8.780;2023-07-08T02:54:44;18.60;99.90
36790;DHT22;22740;52.182;8.780;2023-07-08T03:00:50;18.60;99.90
36790;DHT22;22740;52.182;8.780;2023-07-08T03:06:53;18.50;99.90
36790;DHT22;22740;52.182;8.780;2023-07-08T03:12:55;18.40;99.90
36790;DHT22;22740;52.182;8.780;2023-07-08T03:18:57;18.50;99.90
36790;DHT22;22740;52.182;8.780;2023-07-08T03:24:58;18.50;99.90
36790;DHT22;22740;52.182;8.780;2023-07-08T03:31:01;18.40;99.90
36790;DHT22;22740;52.182;8.780;2023-07-08T03:37:03;18.40;99.90
36790;DHT22;22740;52.182;8.780;2023-07-08T03:43:05;18.50;99.90
36790;DHT22;22740;52.182;8.780;2023-07-08T03:49:09;18.90;99.90
36790;DHT22;22740;52.182;8.780;2023-07-08T03:55:11;18.90;99.90
36790;DHT22;22740;52.182;8.780;2023-07-08T04:01:18;18.70;99.90
36790;DHT22;22740;52.182;8.780;2023-07-08T04:07:22;18.60;99.90
36790;DHT22;22740;52.182;8.780;2023-07-08T04:13:24;18.50;99.90
36790;DHT22;22740;52.182;8.780;2023-07-08T04:19:26;19.70;99.90
36790;DHT22;22740;52.182;8.780;2023-07-08T04:25:29;21.30;99.90
36790;DHT22;22740;52.182;8.780;2023-07-08T04:31:31;21.30;99.90
36790;DHT22;22740;52.182;8.780;2023-07-08T04:37:33;20.90;99.90
36790;DHT22;22740;52.182;8.780;2023-07-08T04:43:36;20.90;99.90
36790;DHT22;22740;52.182;8.780;2023-07-08T04:49:37;21.70;99.90
36790;DHT22;22740;52.182;8.780;2023-07-08T04:55:46;22.40;99.90
36790;DHT22;22740;52.182;8.780;2023-07-08T05:01:49;22.00;99.90
36790;DHT22;22740;52.182;8.780;2023-07-08T05:07:51;21.60;99.90
36790;DHT22;22740;52.182;8.780;2023-07-08T05:13:53;21.20;99.90
36790;DHT22;22740;52.182;8.780;2023-07-08T05:19:55;20.60;99.90
36790;DHT22;22740;52.182;8.780;2023-07-08T05:26:01;19.70;99.90
36790;DHT22;22740;52.182;8.780;2023-07-08T05:32:03;19.00;99.90
36790;DHT22;22740;52.182;8.780;2023-07-08T05:38:05;19.00;99.90
36790;DHT22;22740;52.182;8.780;2023-07-08T05:44:07;19.30;99.90
36790;DHT22;22740;52.182;8.780;2023-07-08T05:50:09;19.50;99.90
36790;DHT22;22740;52.182;8.780;2023-07-08T05:56:11;19.60;99.90
36790;DHT22;22740;52.182;8.780;2023-07-08T06:02:13;19.70;99.90
36790;DHT22;22740;52.182;8.780;2023-07-08T06:08:15;19.90;99.90
36790;DHT22;22740;52.182;8.780;2023-07-08T06:14:17;20.00;99.90
36790;DHT22;22740;52.182;8.780;2023-07-08T06:20:19;20.00;99.90
36790;DHT22;22740;52.182;8.780;2023-07-08T06:26:20;20.40;99.90
36790;DHT22;22740;52.182;8.780;2023-07-08T06:32:23;20.80;99.90
36790;DHT22;22740;52.182;8.780;2023-07-08T06:38:27;21.40;99.90
36790;DHT22;22740;52.182;8.780;2023-07-08T06:44:29;21.80;99.90
36790;DHT22;22740;52.182;8.780;2023-07-08T06:50:31;22.00;99.90
36790;DHT22;22740;52.182;8.780;2023-07-08T06:56:34;22.10;99.90
36790;DHT22;22740;52.182;8.780;2023-07-08T07:02:36;22.20;99.90
36790;DHT22;22740;52.182;8.780;2023-07-08T07:08:38;22.40;99.90
36790;DHT22;22740;52.182;8.780;2023-07-08T07:14:40;22.60;99.90
36790;DHT22;22740;52.182;8.780;2023-07-08T07:20:54;22.70;99.90
36790;DHT22;22740;52.182;8.780;2023-07-08T07:26:56;22.60;99.90
36790;DHT22;22740;52.182;8.780;2023-07-08T07:33:01;22.70;99.90
36790;DHT22;22740;52.182;8.780;2023-07-08T07:39:03;22.80;99.90
36790;DHT22;22740;52.182;8.780;2023-07-08T07:45:06;23.00;99.90
36790;DHT22;22740;52.182;8.780;2023-07-08T07:51:08;23.10;99.90
36790;DHT22;22740;52.182;8.780;2023-07-08T07:57:12;23.30;99.90
36790;DHT22;22740;52.182;8.780;2023-07-08T08:03:14;23.40;99.90
36790;DHT22;22740;52.182;8.780;2023-07-08T08:09:20;23.40;99.90
36790;DHT22;22740;52.182;8.780;2023-07-08T08:15:22;23.70;99.90
36790;DHT22;22740;52.182;8.780;2023-07-08T08:21:24;23.90;99.90
36790;DHT22;22740;52.182;8.780;2023-07-08T08:27:26;24.20;99.90
36790;DHT22;22740;52.182;8.780;2023-07-08T08:33:28;24.40;99.90
36790;DHT22;22740;52.182;8.780;2023-07-08T08:39:30;24.60;99.90
36790;DHT22;22740;52.182;8.780;2023-07-08T08:45:41;24.80;99.90
36790;DHT22;22740;52.182;8.780;2023-07-08T08:51:50;25.10;99.90
36790;DHT22;22740;52.182;8.780;2023-07-08T09:04:20;25.90;99.90
36790;DHT22;22740;52.182;8.780;2023-07-08T09:10:42;26.20;99.90
36790;DHT22;22740;52.182;8.780;2023-07-08T09:16:53;26.40;99.90
36790;DHT22;22740;52.182;8.780;2023-07-08T09:23:40;26.70;99.90
36790;DHT22;22740;52.182;8.780;2023-07-08T09:29:23;27.20;99.90
36790;DHT22;22740;52.182;8.780;2023-07-08T09:35:37;27.60;99.90
36790;DHT22;22740;52.182;8.780;2023-07-08T09:41:42;27.80;99.90
36790;DHT22;22740;52.182;8.780;2023-07-08T09:47:46;27.90;99.90
36790;DHT22;22740;52.182;8.780;2023-07-08T09:53:48;28.00;99.90
36790;DHT22;22740;52.182;8.780;2023-07-08T09:59:55;28.20;99.90
36790;DHT22;22740;52.182;8.780;2023-07-08T10:06:03;28.40;99.90
36790;DHT22;22740;52.182;8.780;2023-07-08T10:12:08;28.70;99.90
36790;DHT22;22740;52.182;8.780;2023-07-08T10:18:16;28.80;99.90
36790;DHT22;22740;52.182;8.780;2023-07-08T10:31:25;29.20;99.90
36790;DHT22;22740;52.182;8.780;2023-07-08T10:37:42;29.30;99.90
36790;DHT22;22740;52.182;8.780;2023-07-08T10:44:09;29.70;99.90
36790;DHT22;22740;52.182;8.780;2023-07-08T10:56:55;30.20;99.90
36790;DHT22;22740;52.182;8.780;2023-07-08T11:03:26;30.40;99.90
36790;DHT22;22740;52.182;8.780;2023-07-08T11:09:43;30.60;99.90
36790;DHT22;22740;52.182;8.780;2023-07-08T11:15:52;30.60;99.90
36790;DHT22;22740;52.182;8.780;2023-07-08T11:22:00;30.70;99.90
36790;DHT22;22740;52.182;8.780;2023-07-08T11:28:05;30.50;99.90
36790;DHT22;22740;52.182;8.780;2023-07-08T11:34:11;30.50;99.90
36790;DHT22;22740;52.182;8.780;2023-07-08T11:40:20;30.60;99.90
36790;DHT22;22740;52.182;8.780;2023-07-08T11:46:26;30.90;99.20
36790;DHT22;22740;52.182;8.780;2023-07-08T11:52:30;30.70;95.50
36790;DHT22;22740;52.182;8.780;2023-07-08T11:58:49;30.70;98.10
36790;DHT22;22740;52.182;8.780;2023-07-08T12:05:04;30.90;99.90
36790;DHT22;22740;52.182;8.780;2023-07-08T12:11:14;30.90;98.80
36790;DHT22;22740;52.182;8.780;2023-07-08T12:17:16;31.10;99.20
36790;DHT22;22740;52.182;8.780;2023-07-08T12:23:20;31.00;96.30
36790;DHT22;22740;52.182;8.780;2023-07-08T12:29:23;30.70;93.40
36790;DHT22;22740;52.182;8.780;2023-07-08T12:35:30;30.80;93.00
36790;DHT22;22740;52.182;8.780;2023-07-08T12:41:34;30.60;94.40
36790;DHT22;22740;52.182;8.780;2023-07-08T12:47:40;30.60;97.50
36790;DHT22;22740;52.182;8.780;2023-07-08T12:53:42;30.60;93.90
36790;DHT22;22740;52.182;8.780;2023-07-08T12:59:44;30.70;97.30
36790;DHT22;22740;52.182;8.780;2023-07-08T13:05:48;30.70;94.30
36790;DHT22;22740;52.182;8.780;2023-07-08T13:11:51;30.90;96.40
36790;DHT22;22740;52.182;8.780;2023-07-08T13:17:55;31.00;96.90
36790;DHT22;22740;52.182;8.780;2023-07-08T13:23:58;31.00;95.90
36790;DHT22;22740;52.182;8.780;2023-07-08T13:30:18;30.90;95.00
36790;DHT22;22740;52.182;8.780;2023-07-08T13:36:31;30.70;93.60
36790;DHT22;22740;52.182;8.780;2023-07-08T13:42:33;30.70;94.90
36790;DHT22;22740;52.182;8.780;2023-07-08T13:48:41;30.70;92.70
36790;DHT22;22740;52.182;8.780;2023-07-08T13:54:50;30.80;96.20
36790;DHT22;22740;52.182;8.780;2023-07-08T14:00:54;30.80;94.20
36790;DHT22;22740;52.182;8.780;2023-07-08T14:06:57;30.70;94.30
36790;DHT22;22740;52.182;8.780;2023-07-08T14:12:59;30.70;92.50
36790;DHT22;22740;52.182;8.780;2023-07-08T14:19:02;30.70;92.00
36790;DHT22;22740;52.182;8.780;2023-07-08T14:25:08;30.70;94.10
36790;DHT22;22740;52.182;8.780;2023-07-08T14:31:12;30.70;91.50
36790;DHT22;22740;52.182;8.780;2023-07-08T14:37:15;30.60;91.10
36790;DHT22;22740;52.182;8.780;2023-07-08T14:43:21;30.60;91.50
36790;DHT22;22740;52.182;8.780;2023-07-08T14:49:27;30.70;94.40
36790;DHT22;22740;52.182;8.780;2023-07-08T14:55:29;30.70;94.90
36790;DHT22;22740;52.182;8.780;2023-07-08T15:01:31;30.70;91.50
36790;DHT22;22740;52.182;8.780;2023-07-08T15:07:33;30.60;92.50
36790;DHT22;22740;52.182;8.780;2023-07-08T15:13:35;30.60;96.70
36790;DHT22;22740;52.182;8.780;2023-07-08T15:19:37;30.60;94.10
36790;DHT22;22740;52.182;8.780;2023-07-08T15:25:43;30.60;90.40
36790;DHT22;22740;52.182;8.780;2023-07-08T15:31:45;30.70;90.80
36790;DHT22;22740;52.182;8.780;2023-07-08T15:37:47;30.80;93.30
36790;DHT22;22740;52.182;8.780;2023-07-08T15:43:49;30.80;94.30
36790;DHT22;22740;52.182;8.780;2023-07-08T15:49:54;30.70;89.50
36790;DHT22;22740;52.182;8.780;2023-07-08T15:55:55;30.80;90.20
36790;DHT22;22740;52.182;8.780;2023-07-08T16:02:03;30.60;91.40
36790;DHT22;22740;52.182;8.780;2023-07-08T16:08:05;30.60;91.50
36790;DHT22;22740;52.182;8.780;2023-07-08T16:14:12;30.60;90.60
36790;DHT22;22740;52.182;8.780;2023-07-08T16:20:17;30.50;90.90
36790;DHT22;22740;52.182;8.780;2023-07-08T16:26:20;30.60;90.90
36790;DHT22;22740;52.182;8.780;2023-07-08T16:32:21;30.50;89.70
36790;DHT22;22740;52.182;8.780;2023-07-08T16:38:24;30.60;89.20
36790;DHT22;22740;52.182;8.780;2023-07-08T16:44:26;30.60;91.10
36790;DHT22;22740;52.182;8.780;2023-07-08T16:50:28;30.60;89.70
36790;DHT22;22740;52.182;8.780;2023-07-08T16:56:30;30.60;90.40
36790;DHT22;22740;52.182;8.780;2023-07-08T17:02:33;30.60;90.20
36790;DHT22;22740;52.182;8.780;2023-07-08T17:08:36;30.70;91.80
36790;DHT22;22740;52.182;8.780;2023-07-08T17:14:38;30.80;90.30
36790;DHT22;22740;52.182;8.780;2023-07-08T17:20:39;30.70;92.20
36790;DHT22;22740;52.182;8.780;2023-07-08T17:26:42;30.80;93.10
36790;DHT22;22740;52.182;8.780;2023-07-08T17:32:47;30.60;92.50
36790;DHT22;22740;52.182;8.780;2023-07-08T17:38:51;30.70;92.30
36790;DHT22;22740;52.182;8.780;2023-07-08T17:44:53;30.50;92.90
36790;DHT22;22740;52.182;8.780;2023-07-08T17:50:54;30.40;93.90
36790;DHT22;22740;52.182;8.780;2023-07-08T17:56:57;30.00;95.10
36790;DHT22;22740;52.182;8.780;2023-07-08T18:02:59;29.70;96.70
36790;DHT22;22740;52.182;8.780;2023-07-08T18:09:02;29.90;97.70
36790;DHT22;22740;52.182;8.780;2023-07-08T18:21:20;29.50;96.50
36790;DHT22;22740;52.182;8.780;2023-07-08T18:27:22;29.00;97.10
36790;DHT22;22740;52.182;8.780;2023-07-08T18:33:24;28.60;98.40
36790;DHT22;22740;52.182;8.780;2023-07-08T18:39:26;28.40;99.50
36790;DHT22;22740;52.182;8.780;2023-07-08T18:45:30;28.10;99.90
36790;DHT22;22740;52.182;8.780;2023-07-08T18:51:41;27.90;99.90
36790;DHT22;22740;52.182;8.780;2023-07-08T18:57:44;27.70;99.90
36790;DHT22;22740;52.182;8.780;2023-07-08T19:03:46;27.50;99.90
36790;DHT22;22740;52.182;8.780;2023-07-08T19:09:48;27.30;99.90
36790;DHT22;22740;52.182;8.780;2023-07-08T19:15:50;27.00;99.90
36790;DHT22;22740;52.182;8.780;2023-07-08T19:21:56;26.80;99.90
36790;DHT22;22740;52.182;8.780;2023-07-08T19:27:58;26.60;99.90
36790;DHT22;22740;52.182;8.780;2023-07-08T19:34:03;26.40;99.90
36790;DHT22;22740;52.182;8.780;2023-07-08T19:40:10;26.20;99.90
36790;DHT22;22740;52.182;8.780;2023-07-08T19:46:15;26.00;99.90
36790;DHT22;22740;52.182;8.780;2023-07-08T19:52:17;25.90;99.90
36790;DHT22;22740;52.182;8.780;2023-07-08T19:58:19;25.70;99.90
36790;DHT22;22740;52.182;8.780;2023-07-08T20:04:21;25.70;99.90
36790;DHT22;22740;52.182;8.780;2023-07-08T20:10:23;25.60;99.90
36790;DHT22;22740;52.182;8.780;2023-07-08T20:16:26;25.40;99.90
36790;DHT22;22740;52.182;8.780;2023-07-08T20:22:30;25.40;99.90
36790;DHT22;22740;52.182;8.780;2023-07-08T20:28:35;25.30;99.90
36790;DHT22;22740;52.182;8.780;2023-07-08T20:34:47;25.30;99.90
36790;DHT22;22740;52.182;8.780;2023-07-08T20:40:49;25.10;99.90
36790;DHT22;22740;52.182;8.780;2023-07-08T20:46:51;25.00;99.90
36790;DHT22;22740;52.182;8.780;2023-07-08T20:52:54;24.90;99.90
36790;DHT22;22740;52.182;8.780;2023-07-08T20:58:57;24.90;99.90
36790;DHT22;22740;52.182;8.780;2023-07-08T21:05:00;24.80;99.90
36790;DHT22;22740;52.182;8.780;2023-07-08T21:11:03;24.70;99.90
36790;DHT22;22740;52.182;8.780;2023-07-08T21:17:17;24.70;99.90
36790;DHT22;22740;52.182;8.780;2023-07-08T21:23:20;24.60;99.90
36790;DHT22;22740;52.182;8.780;2023-07-08T21:29:23;24.60;99.90
36790;DHT22;22740;52.182;8.780;2023-07-08T21:35:27;24.60;99.90
36790;DHT22;22740;52.182;8.780;2023-07-08T21:41:31;24.60;99.90
36790;DHT22;22740;52.182;8.780;2023-07-08T21:47:32;24.60;99.90
36790;DHT22;22740;52.182;8.780;2023-07-08T21:53:35;24.60;99.90
36790;DHT22;22740;52.182;8.780;2023-07-08T21:59:38;24.60;99.90
36790;DHT22;22740;52.182;8.780;2023-07-08T22:05:40;24.90;99.90
36790;DHT22;22740;52.182;8.780;2023-07-08T22:11:42;24.80;99.90
36790;DHT22;22740;52.182;8.780;2023-07-08T22:17:44;24.80;99.90
36790;DHT22;22740;52.182;8.780;2023-07-08T22:23:46;24.50;99.90
36790;DHT22;22740;52.182;8.780;2023-07-08T22:29:48;24.30;99.90
36790;DHT22;22740;52.182;8.780;2023-07-08T22:35:50;24.30;99.90
36790;DHT22;22740;52.182;8.780;2023-07-08T22:41:53;24.30;99.90
36790;DHT22;22740;52.182;8.780;2023-07-08T22:47:55;24.20;99.90
36790;DHT22;22740;52.182;8.780;2023-07-08T22:53:57;24.20;99.90
36790;DHT22;22740;52.182;8.780;2023-07-08T22:59:59;24.20;99.90
36790;DHT22;22740;52.182;8.780;2023-07-08T23:06:01;24.10;99.90
36790;DHT22;22740;52.182;8.780;2023-07-08T23:12:04;24.10;99.90
36790;DHT22;22740;52.182;8.780;2023-07-08T23:18:13;24.10;99.90
36790;DHT22;22740;52.182;8.780;2023-07-08T23:24:15;24.20;99.90
36790;DHT22;22740;52.182;8.780;2023-07-08T23:30:18;24.40;99.90
36790;DHT22;22740;52.182;8.780;2023-07-08T23:36:21;23.60;99.90
36790;DHT22;22740;52.182;8.780;2023-07-08T23:42:24;22.70;99.90
36790;DHT22;22740;52.182;8.780;2023-07-08T23:48:26;22.60;99.90
36790;DHT22;22740;52.182;8.780;2023-07-08T23:54:31;22.80;99.90
